sensor_id;sensor_type;location;lat;lon;timestamp;pressure;altitude;pressure_sealevel;temperature;humidity
83448;BME280;73376;45.472;-73.568;2024-02-21T00:00:07;103228.19;;;-6.64;49.79
83448;BME280;73376;45.472;-73.568;2024-02-21T00:02:35;102958.13;;;-8.27;49.76
83448;BME280;73376;45.472;-73.568;2024-02-21T00:05:10;103045.25;;;-7.76;49.74
83448;BME280;73376;45.472;-73.568;2024-02-21T00:07:56;102971.41;;;-8.27;49.89
83448;BME280;73376;45.472;-73.568;2024-02-21T00:10:34;103208.50;;;-6.88;50.06
83448;BME280;73376;45.472;-73.568;2024-02-21T00:13:06;103053.72;;;-7.94;50.07
83448;BME280;73376;45.472;-73.568;2024-02-21T00:15:57;103213.94;;;-6.93;49.88
83448;BME280;73376;45.472;-73.568;2024-02-21T00:21:06;103029.56;;;-8.18;50.31
83448;BME280;73376;45.472;-73.568;2024-02-21T00:23:41;103146.56;;;-7.57;49.93
83448;BME280;73376;45.472;-73.568;2024-02-21T00:26:14;103057.69;;;-8.12;50.15
83448;BME280;73376;45.472;-73.568;2024-02-21T00:28:52;103124.00;;;-7.75;50.48
83448;BME280;73376;45.472;-73.568;2024-02-21T00:31:33;103039.31;;;-8.20;50.81
83448;BME280;73376;45.472;-73.568;2024-02-21T00:34:08;103174.66;;;-7.48;50.91
83448;BME280;73376;45.472;-73.568;2024-02-21T00:36:41;103195.25;;;-7.22;51.24
83448;BME280;73376;45.472;-73.568;2024-02-21T00:39:10;103023.56;;;-8.26;50.54
83448;BME280;73376;45.472;-73.568;2024-02-21T00:41:37;102974.09;;;-8.63;50.26
83448;BME280;73376;45.472;-73.568;2024-02-21T00:44:26;103213.84;;;-7.22;50.36
83448;BME280;73376;45.472;-73.568;2024-02-21T00:47:15;103216.66;;;-7.28;50.78
83448;BME280;73376;45.472;-73.568;2024-02-21T00:49:41;103193.16;;;-7.44;50.66
83448;BME280;73376;45.472;-73.568;2024-02-21T00:52:20;103058.41;;;-8.38;50.81
83448;BME280;73376;45.472;-73.568;2024-02-21T00:54:51;102949.22;;;-8.93;51.08
83448;BME280;73376;45.472;-73.568;2024-02-21T00:57:21;103125.41;;;-7.96;50.66
83448;BME280;73376;45.472;-73.568;2024-02-21T00:59:49;103039.97;;;-8.44;51.25
83448;BME280;73376;45.472;-73.568;2024-02-21T01:02:27;103014.44;;;-8.48;50.78
83448;BME280;73376;45.472;-73.568;2024-02-21T01:05:11;103193.16;;;-7.44;50.41
83448;BME280;73376;45.472;-73.568;2024-02-21T01:07:52;103211.78;;;-7.44;50.37
83448;BME280;73376;45.472;-73.568;2024-02-21T01:10:23;103188.19;;;-7.57;50.34
83448;BME280;73376;45.472;-73.568;2024-02-21T01:12:53;103189.03;;;-7.55;50.52
83448;BME280;73376;45.472;-73.568;2024-02-21T01:15:22;102847.34;;;-9.54;50.31
83448;BME280;73376;45.472;-73.568;2024-02-21T01:18:02;103213.72;;;-7.52;50.56
83448;BME280;73376;45.472;-73.568;2024-02-21T01:23:56;103151.47;;;-7.74;51.36
83448;BME280;73376;45.472;-73.568;2024-02-21T01:26:31;103015.84;;;-8.69;51.19
83448;BME280;73376;45.472;-73.568;2024-02-21T01:29:09;102877.34;;;-9.54;51.50
83448;BME280;73376;45.472;-73.568;2024-02-21T01:31:50;103081.28;;;-8.36;51.53
83448;BME280;73376;45.472;-73.568;2024-02-21T01:34:31;103093.38;;;-8.24;52.21
83448;BME280;73376;45.472;-73.568;2024-02-21T01:37:09;103199.00;;;-7.64;52.04
83448;BME280;73376;45.472;-73.568;2024-02-21T01:39:41;103021.22;;;-8.72;51.82
83448;BME280;73376;45.472;-73.568;2024-02-21T01:42:07;103003.84;;;-8.86;51.64
83448;BME280;73376;45.472;-73.568;2024-02-21T01:44:37;103033.72;;;-8.79;52.31
83448;BME280;73376;45.472;-73.568;2024-02-21T01:47:11;103211.50;;;-7.69;52.20
83448;BME280;73376;45.472;-73.568;2024-02-21T01:49:42;103090.22;;;-8.38;52.91
83448;BME280;73376;45.472;-73.568;2024-02-21T01:52:14;103214.28;;;-7.73;52.41
83448;BME280;73376;45.472;-73.568;2024-02-21T01:54:41;103052.06;;;-8.70;52.48
83448;BME280;73376;45.472;-73.568;2024-02-21T01:57:08;103014.66;;;-8.95;52.17
83448;BME280;73376;45.472;-73.568;2024-02-21T01:59:36;103189.56;;;-7.77;52.31
83448;BME280;73376;45.472;-73.568;2024-02-21T02:02:02;103190.59;;;-7.82;52.19
83448;BME280;73376;45.472;-73.568;2024-02-21T02:04:29;103160.72;;;-7.91;52.11
83448;BME280;73376;45.472;-73.568;2024-02-21T02:06:55;103185.06;;;-7.73;52.33
83448;BME280;73376;45.472;-73.568;2024-02-21T02:09:21;103177.16;;;-7.76;52.23
83448;BME280;73376;45.472;-73.568;2024-02-21T02:11:47;103106.38;;;-8.13;52.05
83448;BME280;73376;45.472;-73.568;2024-02-21T02:14:13;103159.50;;;-7.77;52.13
83448;BME280;73376;45.472;-73.568;2024-02-21T02:16:39;103139.22;;;-7.81;52.36
83448;BME280;73376;45.472;-73.568;2024-02-21T02:19:06;103094.44;;;-7.95;52.24
83448;BME280;73376;45.472;-73.568;2024-02-21T02:21:38;103085.53;;;-7.93;52.32
83448;BME280;73376;45.472;-73.568;2024-02-21T02:24:06;103173.13;;;-7.23;53.75
83448;BME280;73376;45.472;-73.568;2024-02-21T02:26:33;103170.25;;;-7.15;53.73
83448;BME280;73376;45.472;-73.568;2024-02-21T02:29:01;103164.00;;;-7.14;53.52
83448;BME280;73376;45.472;-73.568;2024-02-21T02:31:28;103167.19;;;-7.01;53.53
83448;BME280;73376;45.472;-73.568;2024-02-21T02:33:57;103179.63;;;-7.02;53.75
83448;BME280;73376;45.472;-73.568;2024-02-21T02:36:23;103121.16;;;-7.34;53.98
83448;BME280;73376;45.472;-73.568;2024-02-21T02:38:49;103172.78;;;-7.10;53.28
83448;BME280;73376;45.472;-73.568;2024-02-21T02:41:18;103159.56;;;-7.14;53.41
83448;BME280;73376;45.472;-73.568;2024-02-21T02:43:44;103168.47;;;-7.15;53.31
83448;BME280;73376;45.472;-73.568;2024-02-21T02:46:10;103101.34;;;-7.54;53.14
83448;BME280;73376;45.472;-73.568;2024-02-21T02:48:36;103034.31;;;-7.96;53.50
83448;BME280;73376;45.472;-73.568;2024-02-21T02:51:04;103120.75;;;-7.52;53.27
83448;BME280;73376;45.472;-73.568;2024-02-21T02:53:35;103065.91;;;-7.87;53.30
83448;BME280;73376;45.472;-73.568;2024-02-21T02:56:01;103060.78;;;-7.95;53.54
83448;BME280;73376;45.472;-73.568;2024-02-21T02:58:27;103159.59;;;-7.48;53.45
83448;BME280;73376;45.472;-73.568;2024-02-21T03:00:54;102963.59;;;-8.66;53.18
83448;BME280;73376;45.472;-73.568;2024-02-21T03:03:26;103137.91;;;-7.64;53.51
83448;BME280;73376;45.472;-73.568;2024-02-21T03:05:55;102893.34;;;-9.21;53.64
83448;BME280;73376;45.472;-73.568;2024-02-21T03:08:22;102860.44;;;-9.48;53.62
83448;BME280;73376;45.472;-73.568;2024-02-21T03:10:48;103059.38;;;-8.42;53.90
83448;BME280;73376;45.472;-73.568;2024-02-21T03:13:14;103132.66;;;-8.02;53.66
83448;BME280;73376;45.472;-73.568;2024-02-21T03:15:47;103005.25;;;-8.71;54.12
83448;BME280;73376;45.472;-73.568;2024-02-21T03:18:31;103013.06;;;-8.65;53.73
83448;BME280;73376;45.472;-73.568;2024-02-21T03:21:08;103063.13;;;-8.52;53.78
83448;BME280;73376;45.472;-73.568;2024-02-21T03:23:38;103147.06;;;-8.13;53.76
83448;BME280;73376;45.472;-73.568;2024-02-21T03:26:05;102990.84;;;-8.98;54.01
83448;BME280;73376;45.472;-73.568;2024-02-21T03:28:38;102887.06;;;-9.54;54.05
83448;BME280;73376;45.472;-73.568;2024-02-21T03:34:39;103009.47;;;-8.99;53.89
83448;BME280;73376;45.472;-73.568;2024-02-21T03:37:14;102849.84;;;-9.88;53.74
83448;BME280;73376;45.472;-73.568;2024-02-21T03:40:00;102967.69;;;-9.29;54.22
83448;BME280;73376;45.472;-73.568;2024-02-21T03:42:32;102931.97;;;-9.49;54.18
83448;BME280;73376;45.472;-73.568;2024-02-21T03:45:11;103117.63;;;-8.38;54.43
83448;BME280;73376;45.472;-73.568;2024-02-21T03:47:38;102844.00;;;-10.03;54.11
83448;BME280;73376;45.472;-73.568;2024-02-21T03:50:15;102932.03;;;-9.53;54.16
83448;BME280;73376;45.472;-73.568;2024-02-21T03:52:45;103043.16;;;-9.06;54.19
83448;BME280;73376;45.472;-73.568;2024-02-21T03:58:47;103103.84;;;-8.53;54.85
83448;BME280;73376;45.472;-73.568;2024-02-21T04:01:22;102819.13;;;-10.34;54.63
83448;BME280;73376;45.472;-73.568;2024-02-21T04:04:25;102793.72;;;-10.41;55.12
83448;BME280;73376;45.472;-73.568;2024-02-21T04:07:36;103062.03;;;-8.81;55.00
83448;BME280;73376;45.472;-73.568;2024-02-21T04:10:28;103097.13;;;-8.70;55.64
83448;BME280;73376;45.472;-73.568;2024-02-21T04:18:49;102936.28;;;-9.87;55.37
83448;BME280;73376;45.472;-73.568;2024-02-21T04:21:24;102997.13;;;-9.42;55.78
83448;BME280;73376;45.472;-73.568;2024-02-21T04:24:15;103098.25;;;-8.80;55.87
83448;BME280;73376;45.472;-73.568;2024-02-21T04:27:09;102977.09;;;-9.54;55.99
83448;BME280;73376;45.472;-73.568;2024-02-21T04:29:39;103103.66;;;-8.85;56.32
83448;BME280;73376;45.472;-73.568;2024-02-21T04:32:11;102928.53;;;-9.96;56.33
83448;BME280;73376;45.472;-73.568;2024-02-21T04:34:44;103119.59;;;-8.86;56.22
83448;BME280;73376;45.472;-73.568;2024-02-21T04:37:22;102945.31;;;-9.97;56.05
83448;BME280;73376;45.472;-73.568;2024-02-21T04:39:50;103110.88;;;-8.91;56.14
83448;BME280;73376;45.472;-73.568;2024-02-21T04:42:16;103001.84;;;-9.57;55.84
83448;BME280;73376;45.472;-73.568;2024-02-21T04:44:46;103082.13;;;-9.11;56.10
83448;BME280;73376;45.472;-73.568;2024-02-21T04:47:12;103078.72;;;-9.16;55.80
83448;BME280;73376;45.472;-73.568;2024-02-21T04:49:41;103069.09;;;-9.22;55.71
83448;BME280;73376;45.472;-73.568;2024-02-21T04:52:08;103002.78;;;-9.59;56.00
83448;BME280;73376;45.472;-73.568;2024-02-21T04:54:34;102813.63;;;-10.70;56.14
83448;BME280;73376;45.472;-73.568;2024-02-21T04:57:03;103094.50;;;-9.12;56.16
83448;BME280;73376;45.472;-73.568;2024-02-21T04:59:29;103077.88;;;-9.18;56.29
83448;BME280;73376;45.472;-73.568;2024-02-21T05:01:55;103106.72;;;-9.05;56.23
83448;BME280;73376;45.472;-73.568;2024-02-21T05:04:21;103083.28;;;-9.23;56.11
83448;BME280;73376;45.472;-73.568;2024-02-21T05:06:47;103106.78;;;-9.08;56.03
83448;BME280;73376;45.472;-73.568;2024-02-21T05:09:14;103109.56;;;-9.14;55.90
83448;BME280;73376;45.472;-73.568;2024-02-21T05:11:40;103089.44;;;-9.22;56.02
83448;BME280;73376;45.472;-73.568;2024-02-21T05:14:06;103032.81;;;-9.60;56.22
83448;BME280;73376;45.472;-73.568;2024-02-21T05:16:32;103042.31;;;-9.50;56.12
83448;BME280;73376;45.472;-73.568;2024-02-21T05:19:01;103062.34;;;-9.37;56.33
83448;BME280;73376;45.472;-73.568;2024-02-21T05:21:27;103078.97;;;-9.29;56.04
83448;BME280;73376;45.472;-73.568;2024-02-21T05:23:54;102941.13;;;-10.08;56.00
83448;BME280;73376;45.472;-73.568;2024-02-21T05:26:25;103107.88;;;-9.18;56.02
83448;BME280;73376;45.472;-73.568;2024-02-21T05:28:51;103071.28;;;-9.42;56.03
83448;BME280;73376;45.472;-73.568;2024-02-21T05:31:23;103097.41;;;-9.24;56.26
83448;BME280;73376;45.472;-73.568;2024-02-21T05:33:51;102960.41;;;-10.03;56.10
83448;BME280;73376;45.472;-73.568;2024-02-21T05:36:19;103032.88;;;-9.65;56.26
83448;BME280;73376;45.472;-73.568;2024-02-21T05:38:48;103101.00;;;-9.28;56.30
83448;BME280;73376;45.472;-73.568;2024-02-21T05:41:21;102982.38;;;-9.99;56.38
83448;BME280;73376;45.472;-73.568;2024-02-21T05:43:59;103098.41;;;-9.30;56.19
83448;BME280;73376;45.472;-73.568;2024-02-21T05:46:25;102776.66;;;-11.18;55.99
83448;BME280;73376;45.472;-73.568;2024-02-21T05:49:00;103072.00;;;-9.34;56.46
83448;BME280;73376;45.472;-73.568;2024-02-21T05:51:36;102981.50;;;-9.98;56.43
83448;BME280;73376;45.472;-73.568;2024-02-21T05:54:17;102791.44;;;-11.08;56.62
83448;BME280;73376;45.472;-73.568;2024-02-21T05:57:09;103093.28;;;-9.39;56.87
83448;BME280;73376;45.472;-73.568;2024-02-21T05:59:41;102955.16;;;-10.04;56.87
83448;BME280;73376;45.472;-73.568;2024-02-21T06:02:19;103081.84;;;-9.41;56.71
83448;BME280;73376;45.472;-73.568;2024-02-21T06:04:45;102785.31;;;-11.10;56.53
83448;BME280;73376;45.472;-73.568;2024-02-21T06:07:18;102956.13;;;-10.10;56.64
83448;BME280;73376;45.472;-73.568;2024-02-21T06:09:50;103073.25;;;-9.52;56.50
83448;BME280;73376;45.472;-73.568;2024-02-21T06:12:30;102948.44;;;-10.24;56.98
83448;BME280;73376;45.472;-73.568;2024-02-21T06:14:56;103027.84;;;-9.79;56.94
83448;BME280;73376;45.472;-73.568;2024-02-21T06:17:22;103011.28;;;-9.88;57.52
83448;BME280;73376;45.472;-73.568;2024-02-21T06:19:48;103073.16;;;-9.47;57.16
83448;BME280;73376;45.472;-73.568;2024-02-21T06:22:14;103042.69;;;-9.70;57.25
83448;BME280;73376;45.472;-73.568;2024-02-21T06:24:46;103042.66;;;-9.67;56.82
83448;BME280;73376;45.472;-73.568;2024-02-21T06:27:14;103052.31;;;-9.64;57.27
83448;BME280;73376;45.472;-73.568;2024-02-21T06:29:41;103022.59;;;-9.80;57.37
83448;BME280;73376;45.472;-73.568;2024-02-21T06:32:07;103013.00;;;-9.84;57.78
83448;BME280;73376;45.472;-73.568;2024-02-21T06:34:34;103040.00;;;-9.67;57.05
83448;BME280;73376;45.472;-73.568;2024-02-21T06:37:00;103014.78;;;-9.86;57.63
83448;BME280;73376;45.472;-73.568;2024-02-21T06:39:26;103031.31;;;-9.75;57.61
83448;BME280;73376;45.472;-73.568;2024-02-21T06:41:54;103026.00;;;-9.73;58.34
83448;BME280;73376;45.472;-73.568;2024-02-21T06:44:22;103050.41;;;-9.58;58.26
83448;BME280;73376;45.472;-73.568;2024-02-21T06:46:48;103056.47;;;-9.53;58.62
83448;BME280;73376;45.472;-73.568;2024-02-21T06:49:17;102925.66;;;-10.28;58.72
83448;BME280;73376;45.472;-73.568;2024-02-21T06:51:43;103037.25;;;-9.61;58.57
83448;BME280;73376;45.472;-73.568;2024-02-21T06:54:09;103044.97;;;-9.52;58.52
83448;BME280;73376;45.472;-73.568;2024-02-21T06:56:39;103011.97;;;-9.77;58.41
83448;BME280;73376;45.472;-73.568;2024-02-21T06:59:05;103028.56;;;-9.69;58.20
83448;BME280;73376;45.472;-73.568;2024-02-21T07:01:37;103009.31;;;-9.77;58.21
83448;BME280;73376;45.472;-73.568;2024-02-21T07:04:05;103055.78;;;-9.61;58.03
83448;BME280;73376;45.472;-73.568;2024-02-21T07:06:31;103043.50;;;-9.66;58.11
83448;BME280;73376;45.472;-73.568;2024-02-21T07:08:57;102972.91;;;-10.11;58.35
83448;BME280;73376;45.472;-73.568;2024-02-21T07:11:23;103048.88;;;-9.69;58.28
83448;BME280;73376;45.472;-73.568;2024-02-21T07:13:49;103014.88;;;-9.91;58.56
83448;BME280;73376;45.472;-73.568;2024-02-21T07:16:16;103008.94;;;-10.04;58.11
83448;BME280;73376;45.472;-73.568;2024-02-21T07:18:44;102974.84;;;-10.20;57.94
83448;BME280;73376;45.472;-73.568;2024-02-21T07:21:10;103017.59;;;-9.95;58.28
83448;BME280;73376;45.472;-73.568;2024-02-21T07:23:41;103045.63;;;-9.85;58.02
83448;BME280;73376;45.472;-73.568;2024-02-21T07:26:07;102923.63;;;-10.61;58.40
83448;BME280;73376;45.472;-73.568;2024-02-21T07:28:34;102888.59;;;-10.74;59.23
83448;BME280;73376;45.472;-73.568;2024-02-21T07:31:00;102997.44;;;-10.03;58.97
83448;BME280;73376;45.472;-73.568;2024-02-21T07:33:26;102876.28;;;-10.77;58.73
83448;BME280;73376;45.472;-73.568;2024-02-21T07:35:52;102940.84;;;-10.40;58.83
83448;BME280;73376;45.472;-73.568;2024-02-21T07:38:20;102955.66;;;-10.30;58.74
83448;BME280;73376;45.472;-73.568;2024-02-21T07:40:49;102966.19;;;-10.26;58.95
83448;BME280;73376;45.472;-73.568;2024-02-21T07:43:16;103030.66;;;-9.86;58.91
83448;BME280;73376;45.472;-73.568;2024-02-21T07:45:42;103002.66;;;-9.98;58.89
83448;BME280;73376;45.472;-73.568;2024-02-21T07:48:08;102994.91;;;-10.09;59.31
83448;BME280;73376;45.472;-73.568;2024-02-21T07:50:36;102993.00;;;-10.02;59.40
83448;BME280;73376;45.472;-73.568;2024-02-21T07:53:03;102881.44;;;-10.67;59.31
83448;BME280;73376;45.472;-73.568;2024-02-21T07:55:29;102881.56;;;-10.77;58.97
83448;BME280;73376;45.472;-73.568;2024-02-21T07:57:55;102994.75;;;-10.00;59.27
83448;BME280;73376;45.472;-73.568;2024-02-21T08:00:21;103013.91;;;-9.88;59.24
83448;BME280;73376;45.472;-73.568;2024-02-21T08:02:50;102994.75;;;-10.00;59.68
83448;BME280;73376;45.472;-73.568;2024-02-21T08:05:17;102818.88;;;-11.16;59.35
83448;BME280;73376;45.472;-73.568;2024-02-21T08:07:43;102813.47;;;-11.09;59.85
83448;BME280;73376;45.472;-73.568;2024-02-21T08:10:10;102994.78;;;-10.03;59.52
83448;BME280;73376;45.472;-73.568;2024-02-21T08:12:36;102937.31;;;-10.39;59.80
83448;BME280;73376;45.472;-73.568;2024-02-21T08:15:02;103003.53;;;-9.97;59.91
83448;BME280;73376;45.472;-73.568;2024-02-21T08:17:36;102979.19;;;-10.16;59.94
83448;BME280;73376;45.472;-73.568;2024-02-21T08:20:04;102989.59;;;-10.07;59.78
83448;BME280;73376;45.472;-73.568;2024-02-21T08:22:30;102972.06;;;-10.13;60.08
83448;BME280;73376;45.472;-73.568;2024-02-21T08:24:56;102916.25;;;-10.44;60.10
83448;BME280;73376;45.472;-73.568;2024-02-21T08:27:22;102988.63;;;-10.03;60.46
83448;BME280;73376;45.472;-73.568;2024-02-21T08:29:48;102968.69;;;-10.21;60.32
83448;BME280;73376;45.472;-73.568;2024-02-21T08:32:14;102996.63;;;-10.06;59.97
83448;BME280;73376;45.472;-73.568;2024-02-21T08:34:40;102909.28;;;-10.48;59.74
83448;BME280;73376;45.472;-73.568;2024-02-21T08:37:06;102982.56;;;-10.08;60.05
83448;BME280;73376;45.472;-73.568;2024-02-21T08:39:32;102809.06;;;-11.08;59.68
83448;BME280;73376;45.472;-73.568;2024-02-21T08:42:01;102972.91;;;-10.12;59.69
83448;BME280;73376;45.472;-73.568;2024-02-21T08:44:29;102910.16;;;-10.48;59.87
83448;BME280;73376;45.472;-73.568;2024-02-21T08:46:55;102974.75;;;-10.14;59.89
83448;BME280;73376;45.472;-73.568;2024-02-21T08:49:22;102956.47;;;-10.27;59.98
83448;BME280;73376;45.472;-73.568;2024-02-21T08:51:48;102903.38;;;-10.62;60.00
83448;BME280;73376;45.472;-73.568;2024-02-21T08:54:14;102970.44;;;-10.20;60.25
83448;BME280;73376;45.472;-73.568;2024-02-21T08:56:40;102835.31;;;-10.99;60.18
83448;BME280;73376;45.472;-73.568;2024-02-21T08:59:06;102927.78;;;-10.50;60.38
83448;BME280;73376;45.472;-73.568;2024-02-21T09:01:39;102908.72;;;-10.67;60.45
83448;BME280;73376;45.472;-73.568;2024-02-21T09:04:10;102925.38;;;-10.62;60.08
83448;BME280;73376;45.472;-73.568;2024-02-21T09:06:39;102947.31;;;-10.55;60.08
83448;BME280;73376;45.472;-73.568;2024-02-21T09:09:14;102964.66;;;-10.40;60.19
83448;BME280;73376;45.472;-73.568;2024-02-21T09:11:40;102963.88;;;-10.45;60.16
83448;BME280;73376;45.472;-73.568;2024-02-21T09:14:06;102913.28;;;-10.77;60.23
83448;BME280;73376;45.472;-73.568;2024-02-21T09:16:32;102943.91;;;-10.63;60.08
83448;BME280;73376;45.472;-73.568;2024-02-21T09:18:58;102888.16;;;-11.01;59.98
83448;BME280;73376;45.472;-73.568;2024-02-21T09:21:25;102890.88;;;-11.04;60.44
83448;BME280;73376;45.472;-73.568;2024-02-21T09:23:51;102958.94;;;-10.67;59.94
83448;BME280;73376;45.472;-73.568;2024-02-21T09:26:17;102965.03;;;-10.63;60.03
83448;BME280;73376;45.472;-73.568;2024-02-21T09:28:46;102949.41;;;-10.77;60.39
83448;BME280;73376;45.472;-73.568;2024-02-21T09:31:12;102951.22;;;-10.81;60.14
83448;BME280;73376;45.472;-73.568;2024-02-21T09:33:38;102973.09;;;-10.69;60.13
83448;BME280;73376;45.472;-73.568;2024-02-21T09:36:05;102927.69;;;-10.94;60.31
83448;BME280;73376;45.472;-73.568;2024-02-21T09:38:31;102916.44;;;-11.07;60.29
83448;BME280;73376;45.472;-73.568;2024-02-21T09:41:17;102950.44;;;-10.86;60.22
83448;BME280;73376;45.472;-73.568;2024-02-21T09:43:43;102971.41;;;-10.77;60.13
83448;BME280;73376;45.472;-73.568;2024-02-21T09:46:17;102940.84;;;-10.91;60.05
83448;BME280;73376;45.472;-73.568;2024-02-21T09:48:53;102961.81;;;-10.81;59.89
83448;BME280;73376;45.472;-73.568;2024-02-21T09:51:24;102957.47;;;-10.83;60.07
83448;BME280;73376;45.472;-73.568;2024-02-21T09:53:53;102890.28;;;-11.23;60.41
83448;BME280;73376;45.472;-73.568;2024-02-21T09:56:20;102921.78;;;-11.10;60.05
83448;BME280;73376;45.472;-73.568;2024-02-21T09:58:46;102814.38;;;-11.65;60.24
83448;BME280;73376;45.472;-73.568;2024-02-21T10:01:13;102920.78;;;-11.05;60.45
83448;BME280;73376;45.472;-73.568;2024-02-21T10:03:39;102900.78;;;-11.20;60.41
83448;BME280;73376;45.472;-73.568;2024-02-21T10:06:05;102923.47;;;-11.06;60.92
83448;BME280;73376;45.472;-73.568;2024-02-21T10:08:34;102911.22;;;-11.12;60.69
83448;BME280;73376;45.472;-73.568;2024-02-21T10:11:00;102943.56;;;-10.96;60.52
83448;BME280;73376;45.472;-73.568;2024-02-21T10:13:31;102916.47;;;-11.09;60.61
83448;BME280;73376;45.472;-73.568;2024-02-21T10:16:07;102900.00;;;-11.26;60.64
83448;BME280;73376;45.472;-73.568;2024-02-21T10:18:34;102925.31;;;-11.11;60.60
83448;BME280;73376;45.472;-73.568;2024-02-21T10:21:07;102879.09;;;-11.40;60.60
83448;BME280;73376;45.472;-73.568;2024-02-21T10:23:49;102925.22;;;-11.04;61.41
83448;BME280;73376;45.472;-73.568;2024-02-21T10:26:17;102905.16;;;-11.17;61.00
83448;BME280;73376;45.472;-73.568;2024-02-21T10:28:43;102860.56;;;-11.37;61.27
83448;BME280;73376;45.472;-73.568;2024-02-21T10:31:27;102879.81;;;-11.29;60.98
83448;BME280;73376;45.472;-73.568;2024-02-21T10:33:58;102875.38;;;-11.28;61.42
83448;BME280;73376;45.472;-73.568;2024-02-21T10:36:25;102913.81;;;-11.09;61.53
83448;BME280;73376;45.472;-73.568;2024-02-21T10:38:54;102903.31;;;-11.10;61.54
83448;BME280;73376;45.472;-73.568;2024-02-21T10:41:23;102891.19;;;-11.24;61.39
83448;BME280;73376;45.472;-73.568;2024-02-21T10:43:54;102881.53;;;-11.26;61.56
83448;BME280;73376;45.472;-73.568;2024-02-21T10:46:22;102878.97;;;-11.32;61.30
83448;BME280;73376;45.472;-73.568;2024-02-21T10:49:01;102848.47;;;-11.50;61.07
83448;BME280;73376;45.472;-73.568;2024-02-21T10:51:33;102887.75;;;-11.30;61.64
83448;BME280;73376;45.472;-73.568;2024-02-21T10:56:51;102847.59;;;-11.51;61.65
83448;BME280;73376;45.472;-73.568;2024-02-21T10:59:18;102873.78;;;-11.38;61.51
83448;BME280;73376;45.472;-73.568;2024-02-21T11:01:44;102873.78;;;-11.38;61.59
83448;BME280;73376;45.472;-73.568;2024-02-21T11:04:13;102856.38;;;-11.52;61.80
83448;BME280;73376;45.472;-73.568;2024-02-21T11:06:41;102764.06;;;-12.09;61.77
83448;BME280;73376;45.472;-73.568;2024-02-21T11:09:09;102758.75;;;-12.07;62.16
83448;BME280;73376;45.472;-73.568;2024-02-21T11:11:37;102888.72;;;-11.36;61.88
83448;BME280;73376;45.472;-73.568;2024-02-21T11:14:19;102884.34;;;-11.38;61.94
83448;BME280;73376;45.472;-73.568;2024-02-21T11:16:45;102883.50;;;-11.40;62.16
83448;BME280;73376;45.472;-73.568;2024-02-21T11:19:23;102874.81;;;-11.47;62.42
83448;BME280;73376;45.472;-73.568;2024-02-21T11:21:50;102830.31;;;-11.73;62.01
83448;BME280;73376;45.472;-73.568;2024-02-21T11:24:30;102839.88;;;-11.64;62.08
83448;BME280;73376;45.472;-73.568;2024-02-21T11:27:07;102805.94;;;-11.89;62.01
83448;BME280;73376;45.472;-73.568;2024-02-21T11:29:40;102871.38;;;-11.55;62.00
83448;BME280;73376;45.472;-73.568;2024-02-21T11:32:14;102874.06;;;-11.57;62.17
83448;BME280;73376;45.472;-73.568;2024-02-21T11:34:41;102841.97;;;-11.85;62.17
83448;BME280;73376;45.472;-73.568;2024-02-21T11:37:14;102875.78;;;-11.54;61.88
83448;BME280;73376;45.472;-73.568;2024-02-21T11:39:43;102849.69;;;-11.74;61.84
83448;BME280;73376;45.472;-73.568;2024-02-21T11:42:09;102846.19;;;-11.76;62.46
83448;BME280;73376;45.472;-73.568;2024-02-21T11:44:37;102856.59;;;-11.64;62.64
83448;BME280;73376;45.472;-73.568;2024-02-21T11:47:08;102880.13;;;-11.50;62.77
83448;BME280;73376;45.472;-73.568;2024-02-21T11:49:42;102866.13;;;-11.55;62.35
83448;BME280;73376;45.472;-73.568;2024-02-21T11:52:09;102878.31;;;-11.47;62.57
83448;BME280;73376;45.472;-73.568;2024-02-21T11:54:35;102850.41;;;-11.63;62.41
83448;BME280;73376;45.472;-73.568;2024-02-21T11:57:01;102764.00;;;-12.06;62.64
83448;BME280;73376;45.472;-73.568;2024-02-21T11:59:31;102790.09;;;-11.86;62.93
83448;BME280;73376;45.472;-73.568;2024-02-21T12:01:58;102793.50;;;-11.82;63.09
83448;BME280;73376;45.472;-73.568;2024-02-21T12:04:27;102750.84;;;-12.07;62.75
83448;BME280;73376;45.472;-73.568;2024-02-21T12:06:54;102860.53;;;-11.34;62.96
83448;BME280;73376;45.472;-73.568;2024-02-21T12:09:20;102769.94;;;-11.90;62.72
83448;BME280;73376;45.472;-73.568;2024-02-21T12:12:00;102792.53;;;-11.75;62.89
83448;BME280;73376;45.472;-73.568;2024-02-21T12:14:28;102851.81;;;-11.39;62.91
83448;BME280;73376;45.472;-73.568;2024-02-21T12:16:54;102873.59;;;-11.26;62.73
83448;BME280;73376;45.472;-73.568;2024-02-21T12:19:20;102877.06;;;-11.23;62.84
83448;BME280;73376;45.472;-73.568;2024-02-21T12:21:50;102842.09;;;-11.37;62.74
83448;BME280;73376;45.472;-73.568;2024-02-21T12:26:52;102837.69;;;-11.36;62.47
83448;BME280;73376;45.472;-73.568;2024-02-21T12:29:19;102782.69;;;-11.64;62.37
83448;BME280;73376;45.472;-73.568;2024-02-21T12:31:46;102871.59;;;-11.10;62.44
83448;BME280;73376;45.472;-73.568;2024-02-21T12:34:12;102854.91;;;-11.12;62.49
83448;BME280;73376;45.472;-73.568;2024-02-21T12:36:42;102867.84;;;-10.96;62.25
83448;BME280;73376;45.472;-73.568;2024-02-21T12:39:10;102861.53;;;-10.88;62.33
83448;BME280;73376;45.472;-73.568;2024-02-21T12:41:36;102801.22;;;-11.13;62.37
83448;BME280;73376;45.472;-73.568;2024-02-21T12:44:10;102837.75;;;-10.88;62.33
83448;BME280;73376;45.472;-73.568;2024-02-21T12:46:40;102828.88;;;-10.83;62.74
83448;BME280;73376;45.472;-73.568;2024-02-21T12:49:06;102806.06;;;-10.88;62.88
83448;BME280;73376;45.472;-73.568;2024-02-21T12:51:34;102821.44;;;-10.64;62.89
83448;BME280;73376;45.472;-73.568;2024-02-21T12:54:00;102865.75;;;-10.30;62.46
83448;BME280;73376;45.472;-73.568;2024-02-21T12:56:46;102870.78;;;-10.18;62.67
83448;BME280;73376;45.472;-73.568;2024-02-21T12:59:15;102827.75;;;-10.26;62.59
83448;BME280;73376;45.472;-73.568;2024-02-21T13:01:44;102844.66;;;-9.91;63.10
83448;BME280;73376;45.472;-73.568;2024-02-21T13:04:10;102791.88;;;-9.97;63.57